createdAt,value
2023-01-15T00:00:05.074Z,12.93
2023-01-15T00:02:32.616Z,12.82
2023-01-15T00:05:03.176Z,13.05
2023-01-15T00:07:46.183Z,13.16
2023-01-15T00:10:12.628Z,12.79
2023-01-15T00:12:39.067Z,13.15
2023-01-15T00:15:18.090Z,12.06
2023-01-15T00:17:45.195Z,12.30
2023-01-15T00:20:11.904Z,12.79
2023-01-15T00:22:41.518Z,12.05
2023-01-15T00:25:29.010Z,12.29
2023-01-15T00:27:55.432Z,12.91
2023-01-15T00:30:22.095Z,12.78
2023-01-15T00:32:49.428Z,12.84
2023-01-15T00:35:23.056Z,11.61
2023-01-15T00:37:50.287Z,11.99
2023-01-15T00:40:17.926Z,12.18
2023-01-15T00:42:50.390Z,12.59
2023-01-15T00:45:21.590Z,12.29
2023-01-15T00:47:51.610Z,11.92
2023-01-15T00:50:18.467Z,11.69
2023-01-15T00:52:46.765Z,11.65
2023-01-15T00:55:13.734Z,11.67
2023-01-15T00:57:46.461Z,11.53
2023-01-15T01:00:14.084Z,11.07
2023-01-15T01:02:40.641Z,11.69
2023-01-15T01:05:07.608Z,12.38
2023-01-15T01:07:34.506Z,12.37
2023-01-15T01:10:01.005Z,12.60
2023-01-15T01:12:28.634Z,12.08
2023-01-15T01:14:56.979Z,12.20
2023-01-15T01:17:23.630Z,11.81
2023-01-15T01:19:51.387Z,12.16
2023-01-15T01:22:25.103Z,11.66
2023-01-15T01:24:51.808Z,12.27
2023-01-15T01:27:32.168Z,12.06
2023-01-15T01:29:58.860Z,11.81
2023-01-15T01:32:25.472Z,11.99
2023-01-15T01:34:52.019Z,12.55
2023-01-15T01:37:30.970Z,12.33
2023-01-15T01:39:57.707Z,11.97
2023-01-15T01:42:25.937Z,12.07
2023-01-15T01:44:52.436Z,12.10
2023-01-15T01:47:23.015Z,11.91
2023-01-15T01:50:09.829Z,12.58
2023-01-15T01:52:40.556Z,11.99
2023-01-15T01:55:07.893Z,12.14
2023-01-15T01:57:34.987Z,11.87
2023-01-15T02:00:01.986Z,12.13
2023-01-15T02:02:45.138Z,12.10
2023-01-15T02:05:14.962Z,12.32
2023-01-15T02:07:41.917Z,12.10
2023-01-15T02:10:21.048Z,12.33
2023-01-15T02:12:56.841Z,12.18
2023-01-15T02:15:31.137Z,11.42
2023-01-15T02:17:57.847Z,11.99
2023-01-15T02:20:44.625Z,12.26
2023-01-15T02:23:12.552Z,11.82
2023-01-15T02:25:54.397Z,11.77
2023-01-15T02:28:42.369Z,12.27
2023-01-15T02:31:46.780Z,11.55
2023-01-15T02:34:31.592Z,11.98
2023-01-15T02:37:02.108Z,11.75
2023-01-15T02:39:38.932Z,11.56
2023-01-15T02:42:08.562Z,11.82
2023-01-15T02:44:39.878Z,12.00
2023-01-15T02:47:08.896Z,11.94
2023-01-15T02:49:38.945Z,12.20
2023-01-15T02:52:08.476Z,12.43
2023-01-15T02:54:42.172Z,11.67
2023-01-15T02:57:10.485Z,11.92
2023-01-15T02:59:39.521Z,11.63
2023-01-15T03:02:11.103Z,11.02
2023-01-15T03:04:40.424Z,12.17
2023-01-15T03:07:09.999Z,11.88
2023-01-15T03:09:37.775Z,10.81
2023-01-15T03:12:08.156Z,11.06
2023-01-15T03:14:40.780Z,11.79
2023-01-15T03:17:22.666Z,12.11
2023-01-15T03:20:00.931Z,11.24
2023-01-15T03:22:30.531Z,12.16
2023-01-15T03:25:17.217Z,11.59
2023-01-15T03:27:43.708Z,11.46
2023-01-15T03:30:10.717Z,11.48
2023-01-15T03:32:37.687Z,12.30
2023-01-15T03:35:06.815Z,11.54
2023-01-15T03:37:34.065Z,11.94
2023-01-15T03:40:01.867Z,11.89
2023-01-15T03:42:34.622Z,11.80
2023-01-15T03:45:21.555Z,10.89
2023-01-15T03:48:01.963Z,11.74
2023-01-15T03:50:44.182Z,11.59
2023-01-15T03:53:29.563Z,11.60
2023-01-15T03:55:56.148Z,11.74
2023-01-15T03:58:23.265Z,11.93
2023-01-15T04:00:56.356Z,11.95
2023-01-15T04:03:25.644Z,11.68
2023-01-15T04:05:53.689Z,11.75
2023-01-15T04:08:21.614Z,11.65
2023-01-15T04:10:55.362Z,11.20
2023-01-15T04:13:22.469Z,11.55
2023-01-15T04:15:49.642Z,11.61
2023-01-15T04:18:17.400Z,11.22
2023-01-15T04:20:44.192Z,11.75
2023-01-15T04:23:10.865Z,11.23
2023-01-15T04:25:38.297Z,11.03
2023-01-15T04:28:06.748Z,12.08
2023-01-15T04:30:33.526Z,12.25
2023-01-15T04:33:00.217Z,11.90
2023-01-15T04:35:26.873Z,11.24
2023-01-15T04:37:57.110Z,11.16
2023-01-15T04:40:42.650Z,12.19
2023-01-15T04:43:29.545Z,11.82
2023-01-15T04:45:56.701Z,11.96
2023-01-15T04:48:23.600Z,11.62
2023-01-15T04:50:50.561Z,11.08
2023-01-15T04:53:17.503Z,11.43
2023-01-15T04:55:44.201Z,11.51
2023-01-15T04:58:12.009Z,11.72
2023-01-15T05:00:38.567Z,11.85
2023-01-15T05:03:05.210Z,11.66
2023-01-15T05:05:32.686Z,11.75
2023-01-15T05:08:00.421Z,11.49
2023-01-15T05:10:27.023Z,11.23
2023-01-15T05:12:53.559Z,11.84
2023-01-15T05:15:21.442Z,11.51
2023-01-15T05:17:48.313Z,11.69
2023-01-15T05:20:15.750Z,11.34
2023-01-15T05:22:42.633Z,12.09
2023-01-15T05:25:09.481Z,11.72
2023-01-15T05:27:36.138Z,11.43
2023-01-15T05:30:03.580Z,11.79
2023-01-15T05:32:30.592Z,11.80
2023-01-15T05:34:57.214Z,11.52
2023-01-15T05:37:24.035Z,11.18
2023-01-15T05:39:51.336Z,11.25
2023-01-15T05:42:19.233Z,11.60
2023-01-15T05:44:46.929Z,11.29
2023-01-15T05:47:14.388Z,10.76
2023-01-15T05:49:42.283Z,11.88
2023-01-15T05:52:09.527Z,11.18
2023-01-15T05:54:36.563Z,11.34
2023-01-15T05:57:05.154Z,11.47
2023-01-15T05:59:32.510Z,11.42
2023-01-15T06:02:00.968Z,11.92
2023-01-15T06:04:27.685Z,11.11
2023-01-15T06:06:55.862Z,11.46
2023-01-15T06:09:27.820Z,10.70
2023-01-15T06:11:55.320Z,11.52
2023-01-15T06:14:22.092Z,11.18
2023-01-15T06:17:02.855Z,10.96
2023-01-15T06:19:29.632Z,11.32
2023-01-15T06:21:56.138Z,10.89
2023-01-15T06:24:23.255Z,10.32
2023-01-15T06:26:49.895Z,11.42
2023-01-15T06:29:19.134Z,11.38
2023-01-15T06:31:45.670Z,11.89
2023-01-15T06:34:12.333Z,11.78
2023-01-15T06:36:38.882Z,11.03
2023-01-15T06:39:05.654Z,11.39
2023-01-15T06:41:52.683Z,11.47
2023-01-15T06:44:37.960Z,11.07
2023-01-15T06:47:20.960Z,10.99
2023-01-15T06:49:48.725Z,11.67
2023-01-15T06:52:15.358Z,11.29
2023-01-15T06:54:42.324Z,11.09
2023-01-15T06:57:08.784Z,11.24
2023-01-15T06:59:35.466Z,11.27
2023-01-15T07:02:02.826Z,11.09
2023-01-15T07:04:29.541Z,11.26
2023-01-15T07:06:56.465Z,10.89
2023-01-15T07:09:25.988Z,10.66
2023-01-15T07:11:52.644Z,11.42
2023-01-15T07:14:20.125Z,11.77
2023-01-15T07:16:48.120Z,11.20
2023-01-15T07:19:14.591Z,11.40
2023-01-15T07:21:41.308Z,11.21
2023-01-15T07:24:08.365Z,11.00
2023-01-15T07:26:35.277Z,10.77
2023-01-15T07:29:01.729Z,11.31
2023-01-15T07:31:28.145Z,11.12
2023-01-15T07:33:55.867Z,11.13
2023-01-15T07:36:22.643Z,11.58
2023-01-15T07:38:49.868Z,11.09
2023-01-15T07:41:35.221Z,11.49
2023-01-15T07:44:20.579Z,11.42
2023-01-15T07:47:05.722Z,11.43
2023-01-15T07:49:48.309Z,11.21
2023-01-15T07:52:18.989Z,11.64
2023-01-15T07:54:47.822Z,11.47
2023-01-15T07:57:16.711Z,11.34
2023-01-15T07:59:43.701Z,11.31
2023-01-15T08:02:10.277Z,11.42
2023-01-15T08:04:37.373Z,11.87
2023-01-15T08:07:05.411Z,11.77
2023-01-15T08:09:32.131Z,11.67
2023-01-15T08:12:17.909Z,11.57
2023-01-15T08:15:02.975Z,11.23
2023-01-15T08:17:29.757Z,11.51
2023-01-15T08:19:56.121Z,11.19
2023-01-15T08:22:22.733Z,11.76
2023-01-15T08:24:49.332Z,11.45
2023-01-15T08:27:15.819Z,11.40
2023-01-15T08:29:44.625Z,11.54
2023-01-15T08:32:11.202Z,12.22
2023-01-15T08:34:37.949Z,11.57
2023-01-15T08:37:04.791Z,11.77
2023-01-15T08:39:31.451Z,11.49
2023-01-15T08:41:59.582Z,11.10
2023-01-15T08:44:26.192Z,10.97
2023-01-15T08:46:53.171Z,10.97
2023-01-15T08:49:20.898Z,11.17
2023-01-15T08:51:52.346Z,10.83
2023-01-15T08:54:23.035Z,11.17
2023-01-15T08:56:50.298Z,11.43
2023-01-15T08:59:17.879Z,10.66
2023-01-15T09:01:45.652Z,10.74
2023-01-15T09:04:19.214Z,10.90
2023-01-15T09:06:46.230Z,11.04
2023-01-15T09:09:12.953Z,10.30
2023-01-15T09:11:41.685Z,10.61
2023-01-15T09:14:09.305Z,11.22
2023-01-15T09:16:56.114Z,11.28
2023-01-15T09:19:23.313Z,10.75
2023-01-15T09:21:50.596Z,10.82
2023-01-15T09:24:17.250Z,10.77
2023-01-15T09:26:43.878Z,11.21
2023-01-15T09:29:10.938Z,10.86
2023-01-15T09:31:37.629Z,10.88
2023-01-15T09:34:05.243Z,11.34
2023-01-15T09:36:33.517Z,11.05
2023-01-15T09:39:00.981Z,11.28
2023-01-15T09:41:51.062Z,11.28
2023-01-15T09:44:23.389Z,10.82
2023-01-15T09:46:49.841Z,11.17
2023-01-15T09:49:16.695Z,11.03
2023-01-15T09:51:52.365Z,11.08
2023-01-15T09:54:37.397Z,11.02
2023-01-15T09:57:04.856Z,11.69
2023-01-15T09:59:34.952Z,12.47
2023-01-15T10:02:04.284Z,11.99
2023-01-15T10:04:49.445Z,10.77
2023-01-15T10:07:18.729Z,11.61
2023-01-15T10:09:47.938Z,11.82
2023-01-15T10:12:35.723Z,11.06
2023-01-15T10:15:25.790Z,10.74
2023-01-15T10:17:54.046Z,11.20
2023-01-15T10:20:33.579Z,11.16
2023-01-15T10:23:00.030Z,11.48
2023-01-15T10:25:31.998Z,11.16
2023-01-15T10:28:04.208Z,11.35
2023-01-15T10:30:41.072Z,11.44
2023-01-15T10:33:20.846Z,11.85
2023-01-15T10:36:01.278Z,11.60
2023-01-15T10:38:27.958Z,11.58
2023-01-15T10:41:12.612Z,11.43
2023-01-15T10:43:46.145Z,10.56
2023-01-15T10:46:15.564Z,11.64
2023-01-15T10:48:57.120Z,11.48
2023-01-15T10:51:42.348Z,11.22
2023-01-15T10:54:21.206Z,11.68
2023-01-15T10:56:56.185Z,11.51
2023-01-15T10:59:35.204Z,11.51
2023-01-15T11:02:02.845Z,11.34
2023-01-15T11:04:31.462Z,11.43
2023-01-15T11:06:58.147Z,11.20
2023-01-15T11:09:34.600Z,10.20
2023-01-15T11:12:20.157Z,11.81
2023-01-15T11:15:06.251Z,11.48
2023-01-15T11:17:55.409Z,11.27
2023-01-15T11:20:24.960Z,11.25
2023-01-15T11:22:51.876Z,10.83
2023-01-15T11:25:29.042Z,11.09
2023-01-15T11:27:55.847Z,10.66
2023-01-15T11:30:27.482Z,11.76
2023-01-15T11:32:58.949Z,11.05
2023-01-15T11:35:26.358Z,10.59
2023-01-15T11:38:06.225Z,11.00
2023-01-15T11:40:32.847Z,11.18
2023-01-15T11:43:18.239Z,11.84
2023-01-15T11:46:07.521Z,11.40
2023-01-15T11:48:53.787Z,11.49
2023-01-15T11:51:20.192Z,11.99
2023-01-15T11:53:49.212Z,11.45
2023-01-15T11:56:21.265Z,11.27
2023-01-15T11:58:49.635Z,10.63
2023-01-15T12:01:31.473Z,10.65
2023-01-15T12:03:59.036Z,11.12
2023-01-15T12:06:26.865Z,10.81
2023-01-15T12:09:10.512Z,10.87
2023-01-15T12:11:43.372Z,10.56
2023-01-15T12:14:09.717Z,11.25
2023-01-15T12:16:49.560Z,10.54
2023-01-15T12:19:28.376Z,10.33
2023-01-15T12:21:59.045Z,10.69
2023-01-15T12:24:31.331Z,10.27
2023-01-15T12:27:02.126Z,10.52
2023-01-15T12:29:32.017Z,10.40
2023-01-15T12:32:02.030Z,10.40
2023-01-15T12:34:40.648Z,10.65
2023-01-15T12:37:12.332Z,10.70
2023-01-15T12:39:43.158Z,10.84
2023-01-15T12:42:35.880Z,10.85
2023-01-15T12:45:07.990Z,11.13
2023-01-15T12:47:52.987Z,10.56
2023-01-15T12:50:19.798Z,11.19
2023-01-15T12:52:48.455Z,10.91
2023-01-15T12:55:22.691Z,10.76
2023-01-15T12:57:55.404Z,10.81
2023-01-15T13:00:28.911Z,11.01
2023-01-15T13:03:14.171Z,10.42
2023-01-15T13:05:48.408Z,11.03
2023-01-15T13:08:16.447Z,10.82
2023-01-15T13:10:43.287Z,10.57
2023-01-15T13:13:22.979Z,10.79
2023-01-15T13:15:54.436Z,10.82
2023-01-15T13:18:31.177Z,10.94
2023-01-15T13:20:58.887Z,11.09
2023-01-15T13:23:44.340Z,11.52
2023-01-15T13:26:29.567Z,11.03
2023-01-15T13:29:03.030Z,10.96
2023-01-15T13:31:52.866Z,10.51
2023-01-15T13:34:26.215Z,10.45
2023-01-15T13:36:54.916Z,10.42
2023-01-15T13:39:23.505Z,11.27
2023-01-15T13:42:09.672Z,11.29
2023-01-15T13:44:44.780Z,11.00
2023-01-15T13:47:13.493Z,10.04
2023-01-15T13:49:41.958Z,11.09
2023-01-15T13:52:20.461Z,10.72
2023-01-15T13:54:46.810Z,11.00
2023-01-15T13:57:22.699Z,10.69
2023-01-15T13:59:51.082Z,10.58
2023-01-15T14:02:24.450Z,10.61
2023-01-15T14:04:51.050Z,10.98
2023-01-15T14:07:37.146Z,11.12
2023-01-15T14:10:09.661Z,10.89
2023-01-15T14:12:47.286Z,11.16
2023-01-15T14:15:28.974Z,11.02
2023-01-15T14:18:03.548Z,11.08
2023-01-15T14:20:36.781Z,11.11
2023-01-15T14:23:22.103Z,10.57
2023-01-15T14:25:57.761Z,10.93
2023-01-15T14:28:41.268Z,11.45
2023-01-15T14:31:16.790Z,11.01
2023-01-15T14:33:55.775Z,10.88
2023-01-15T14:36:30.592Z,11.25
2023-01-15T14:38:58.975Z,10.90
2023-01-15T14:41:55.890Z,10.67
2023-01-15T14:44:32.670Z,10.88
2023-01-15T14:47:06.577Z,11.59
2023-01-15T14:49:43.317Z,10.66
2023-01-15T14:52:11.829Z,10.95
2023-01-15T14:54:39.498Z,11.09
2023-01-15T14:57:09.518Z,10.81
2023-01-15T14:59:36.005Z,10.21
2023-01-15T15:02:06.051Z,11.16
2023-01-15T15:04:39.073Z,11.00
2023-01-15T15:07:12.979Z,10.81
2023-01-15T15:10:03.719Z,11.26
2023-01-15T15:12:44.724Z,11.12
2023-01-15T15:15:36.722Z,10.71
2023-01-15T15:18:13.324Z,10.33
2023-01-15T15:20:54.981Z,9.86
2023-01-15T15:23:24.662Z,10.69
2023-01-15T15:26:01.401Z,9.20
2023-01-15T15:28:28.987Z,9.68
2023-01-15T15:31:01.820Z,9.52
2023-01-15T15:33:40.375Z,10.56
2023-01-15T15:36:08.293Z,9.70
2023-01-15T15:38:36.145Z,9.82
2023-01-15T15:41:05.704Z,10.22
2023-01-15T15:44:01.134Z,10.75
2023-01-15T15:46:48.122Z,10.29
2023-01-15T15:49:15.733Z,9.78
2023-01-15T15:51:46.370Z,9.52
2023-01-15T15:54:19.168Z,9.46
2023-01-15T15:56:55.675Z,9.29
2023-01-15T15:59:30.056Z,9.61
2023-01-15T16:01:59.396Z,9.73
2023-01-15T16:04:28.798Z,9.48
2023-01-15T16:06:55.948Z,10.07
2023-01-15T16:09:23.836Z,9.55
2023-01-15T16:11:53.350Z,9.41
2023-01-15T16:14:20.820Z,9.86
2023-01-15T16:16:48.698Z,9.28
2023-01-15T16:19:21.743Z,9.59
2023-01-15T16:21:48.583Z,9.37
2023-01-15T16:24:25.709Z,9.15
2023-01-15T16:27:27.090Z,8.91
2023-01-15T16:29:54.442Z,9.26
2023-01-15T16:32:24.476Z,9.63
2023-01-15T16:34:58.975Z,10.03
2023-01-15T16:37:30.783Z,9.48
2023-01-15T16:40:03.115Z,9.29
2023-01-15T16:42:37.956Z,9.60
2023-01-15T16:45:11.301Z,9.90
2023-01-15T16:47:38.094Z,9.94
2023-01-15T16:50:20.307Z,9.61
2023-01-15T16:52:48.016Z,9.73
2023-01-15T16:55:33.602Z,9.46
2023-01-15T16:58:12.879Z,9.77
2023-01-15T17:00:44.540Z,10.08
2023-01-15T17:03:12.374Z,9.91
2023-01-15T17:05:39.396Z,9.96
2023-01-15T17:08:16.059Z,9.41
2023-01-15T17:10:51.867Z,9.79
2023-01-15T17:13:19.715Z,9.55
2023-01-15T17:15:46.871Z,9.53
2023-01-15T17:18:22.657Z,9.50
2023-01-15T17:20:49.600Z,10.04
2023-01-15T17:23:17.758Z,9.63
2023-01-15T17:25:55.068Z,10.05
2023-01-15T17:28:24.655Z,9.76
2023-01-15T17:30:53.268Z,9.50
2023-01-15T17:33:23.746Z,10.11
2023-01-15T17:35:53.534Z,10.16
2023-01-15T17:38:25.800Z,10.02
2023-01-15T17:40:57.676Z,9.36
2023-01-15T17:43:24.366Z,10.28
2023-01-15T17:45:51.497Z,10.30
2023-01-15T17:48:18.462Z,9.87
2023-01-15T17:50:47.474Z,10.02
2023-01-15T17:53:14.305Z,10.33
2023-01-15T17:55:59.878Z,10.15
2023-01-15T17:58:49.691Z,10.08
2023-01-15T18:01:38.020Z,9.94
2023-01-15T18:04:24.544Z,9.97
2023-01-15T18:06:53.206Z,9.17
2023-01-15T18:09:23.107Z,9.57
2023-01-15T18:11:50.432Z,10.39
2023-01-15T18:14:17.681Z,9.76
2023-01-15T18:16:44.780Z,9.55
2023-01-15T18:19:12.089Z,9.77
2023-01-15T18:21:40.174Z,10.30
2023-01-15T18:24:07.969Z,10.50
2023-01-15T18:26:35.870Z,11.04
2023-01-15T18:29:04.819Z,10.64
2023-01-15T18:31:31.577Z,10.10
2023-01-15T18:33:58.254Z,9.80
2023-01-15T18:36:24.699Z,10.46
2023-01-15T18:38:51.488Z,10.31
2023-01-15T18:41:37.998Z,10.12
2023-01-15T18:44:25.156Z,9.74
2023-01-15T18:46:53.663Z,10.52
2023-01-15T18:49:20.995Z,10.51
2023-01-15T18:52:08.265Z,9.78
2023-01-15T18:54:35.595Z,10.33
2023-01-15T18:57:02.576Z,10.31
2023-01-15T18:59:29.478Z,10.77
2023-01-15T19:02:21.287Z,10.49
2023-01-15T19:04:48.314Z,10.21
2023-01-15T19:07:15.300Z,10.12
2023-01-15T19:09:41.960Z,10.53
2023-01-15T19:12:08.786Z,10.38
2023-01-15T19:14:54.072Z,10.03
2023-01-15T19:20:38.943Z,10.30
2023-01-15T19:23:07.014Z,10.66
2023-01-15T19:25:43.869Z,10.61
2023-01-15T19:28:38.532Z,11.30
2023-01-15T19:31:38.727Z,10.22
2023-01-15T19:34:33.929Z,10.46
2023-01-15T19:37:01.181Z,10.62
2023-01-15T19:39:28.697Z,10.25
2023-01-15T19:42:14.887Z,10.87
2023-01-15T19:45:00.202Z,10.63
2023-01-15T19:47:48.572Z,11.16
2023-01-15T19:50:19.551Z,10.71
2023-01-15T19:52:47.487Z,10.11
2023-01-15T19:55:15.505Z,9.93
2023-01-15T19:57:43.513Z,10.26
2023-01-15T20:00:12.307Z,10.49
2023-01-15T20:02:39.498Z,10.42
2023-01-15T20:05:07.245Z,9.85
2023-01-15T20:07:33.815Z,10.67
2023-01-15T20:10:00.339Z,10.49
2023-01-15T20:12:45.593Z,10.26
2023-01-15T20:15:12.772Z,10.48
2023-01-15T20:17:39.348Z,10.33
2023-01-15T20:20:06.386Z,10.39
2023-01-15T20:22:35.190Z,10.42
2023-01-15T20:25:01.710Z,10.32
2023-01-15T20:27:30.644Z,10.14
2023-01-15T20:30:02.483Z,10.52
2023-01-15T20:32:28.987Z,10.31
2023-01-15T20:34:57.223Z,10.92
2023-01-15T20:37:24.161Z,10.92
2023-01-15T20:39:51.178Z,10.33
2023-01-15T20:42:36.732Z,11.08
2023-01-15T20:45:08.767Z,10.98
2023-01-15T20:47:53.997Z,10.53
2023-01-15T20:50:20.537Z,10.45
2023-01-15T20:52:48.349Z,10.75
2023-01-15T20:55:15.257Z,10.71
2023-01-15T20:57:42.283Z,10.90
2023-01-15T21:00:15.388Z,10.17
2023-01-15T21:02:42.329Z,11.35
2023-01-15T21:05:09.532Z,11.54
2023-01-15T21:07:37.323Z,10.81
2023-01-15T21:10:05.705Z,10.86
2023-01-15T21:12:33.540Z,10.60
2023-01-15T21:15:00.623Z,10.93
2023-01-15T21:17:28.258Z,9.76
2023-01-15T21:19:54.870Z,10.38
2023-01-15T21:22:21.712Z,10.77
2023-01-15T21:24:51.401Z,10.87
2023-01-15T21:27:19.898Z,11.02
2023-01-15T21:29:48.356Z,10.61
2023-01-15T21:32:15.433Z,10.77
2023-01-15T21:34:42.215Z,10.51
2023-01-15T21:37:08.968Z,10.84
2023-01-15T21:39:36.288Z,10.64
2023-01-15T21:42:22.070Z,11.05
2023-01-15T21:44:48.809Z,11.33
2023-01-15T21:47:17.251Z,10.57
2023-01-15T21:49:44.304Z,10.99
2023-01-15T21:52:13.891Z,11.27
2023-01-15T21:54:41.783Z,10.40
2023-01-15T21:57:08.761Z,10.03
2023-01-15T21:59:35.797Z,10.27
2023-01-15T22:02:03.523Z,11.00
2023-01-15T22:04:31.445Z,10.47
2023-01-15T22:06:58.270Z,10.79
2023-01-15T22:09:24.904Z,10.86
2023-01-15T22:11:52.644Z,10.80
2023-01-15T22:14:23.452Z,10.39
2023-01-15T22:16:53.589Z,10.57
2023-01-15T22:19:21.057Z,10.19
2023-01-15T22:21:52.539Z,10.95
2023-01-15T22:24:20.084Z,10.27
2023-01-15T22:26:53.751Z,10.77
2023-01-15T22:29:24.264Z,10.67
2023-01-15T22:31:51.516Z,10.76
2023-01-15T22:34:18.525Z,10.93
2023-01-15T22:36:45.656Z,10.27
2023-01-15T22:39:12.695Z,10.79
2023-01-15T22:41:57.818Z,9.95
2023-01-15T22:44:24.336Z,10.25
2023-01-15T22:46:51.072Z,9.76
2023-01-15T22:49:17.835Z,10.01
2023-01-15T22:51:44.613Z,9.63
2023-01-15T22:54:13.087Z,9.93
2023-01-15T22:56:39.738Z,9.91
2023-01-15T22:59:07.044Z,9.98
2023-01-15T23:01:34.204Z,9.87
2023-01-15T23:04:00.930Z,9.81
2023-01-15T23:06:28.537Z,10.22
2023-01-15T23:08:59.411Z,9.69
2023-01-15T23:11:26.799Z,10.07
2023-01-15T23:13:53.360Z,9.94
2023-01-15T23:16:20.097Z,10.51
2023-01-15T23:18:46.880Z,9.99
2023-01-15T23:21:15.827Z,9.94
2023-01-15T23:23:43.427Z,10.55
2023-01-15T23:26:15.049Z,9.66
2023-01-15T23:28:42.017Z,10.23
2023-01-15T23:31:09.038Z,9.68
2023-01-15T23:33:36.697Z,9.84
2023-01-15T23:36:05.946Z,9.97
2023-01-15T23:38:32.461Z,9.75
2023-01-15T23:40:59.449Z,10.12
2023-01-15T23:43:44.557Z,10.12
2023-01-15T23:46:32.879Z,10.47
2023-01-15T23:48:59.804Z,9.81
2023-01-15T23:51:26.514Z,10.33
2023-01-15T23:53:53.354Z,10.24
2023-01-15T23:56:19.954Z,10.54
2023-01-15T23:58:47.287Z,10.09
